createdAt,value
2023-04-10T00:01:36.386Z,13.25
2023-04-10T00:04:06.491Z,12.82
2023-04-10T00:06:34.929Z,13.10
2023-04-10T00:09:03.383Z,11.02
2023-04-10T00:11:31.730Z,11.43
2023-04-10T00:14:00.139Z,12.60
2023-04-10T00:16:28.544Z,9.70
2023-04-10T00:18:57.074Z,14.65
2023-04-10T00:21:27.280Z,11.40
2023-04-10T00:23:55.884Z,14.10
2023-04-10T00:26:26.448Z,11.48
2023-04-10T00:28:54.857Z,13.13
2023-04-10T00:31:23.299Z,13.05
2023-04-10T00:33:51.901Z,12.88
2023-04-10T00:36:20.706Z,11.50
2023-04-10T00:38:50.520Z,17.45
2023-04-10T00:41:18.864Z,13.30
2023-04-10T00:43:47.334Z,15.40
2023-04-10T00:46:15.894Z,11.63
2023-04-10T00:48:44.323Z,11.32
2023-04-10T00:51:12.901Z,10.35
2023-04-10T00:53:41.227Z,10.10
2023-04-10T00:56:11.407Z,11.40
2023-04-10T00:58:39.880Z,12.85
2023-04-10T01:01:08.933Z,12.63
2023-04-10T01:03:37.854Z,10.82
2023-04-10T01:06:19.853Z,12.10
2023-04-10T01:08:54.987Z,11.70
2023-04-10T01:11:34.224Z,12.82
2023-04-10T01:14:07.310Z,11.30
2023-04-10T01:16:38.154Z,12.07
2023-04-10T01:19:10.426Z,13.88
2023-04-10T01:21:38.735Z,12.15
2023-04-10T01:24:22.444Z,12.80
2023-04-10T01:27:10.886Z,12.38
2023-04-10T01:29:44.601Z,13.27
2023-04-10T01:32:15.145Z,10.57
2023-04-10T01:34:46.892Z,12.77
2023-04-10T01:37:18.923Z,12.35
2023-04-10T01:39:48.367Z,13.25
2023-04-10T01:42:16.681Z,11.80
2023-04-10T01:44:47.663Z,11.52
2023-04-10T01:47:17.121Z,13.93
2023-04-10T01:49:46.957Z,13.63
2023-04-10T01:52:15.761Z,13.13
2023-04-10T01:54:45.646Z,10.05
2023-04-10T01:57:15.256Z,13.60
2023-04-10T01:59:45.635Z,14.27
2023-04-10T02:02:14.094Z,12.52
2023-04-10T02:04:42.643Z,10.80
2023-04-10T02:07:14.983Z,10.80
2023-04-10T02:09:49.079Z,14.57
2023-04-10T02:12:21.562Z,14.02
2023-04-10T02:14:51.536Z,12.32
2023-04-10T02:17:22.444Z,12.77
2023-04-10T02:19:50.906Z,13.60
2023-04-10T02:22:19.329Z,14.35
2023-04-10T02:24:47.671Z,14.70
2023-04-10T02:27:16.481Z,13.70
2023-04-10T02:29:44.766Z,13.82
2023-04-10T02:32:16.692Z,12.35
2023-04-10T02:34:45.004Z,13.25
2023-04-10T02:37:13.950Z,13.52
2023-04-10T02:39:42.372Z,13.77
2023-04-10T02:42:11.221Z,11.57
2023-04-10T02:44:40.537Z,11.27
2023-04-10T02:47:08.952Z,11.85
2023-04-10T02:49:38.651Z,13.38
2023-04-10T02:52:07.378Z,14.43
2023-04-10T02:54:35.876Z,15.07
2023-04-10T02:57:04.850Z,13.30
2023-04-10T02:59:33.246Z,13.25
2023-04-10T03:02:01.906Z,15.20
2023-04-10T03:04:33.267Z,13.65
2023-04-10T03:07:03.195Z,13.95
2023-04-10T03:09:31.520Z,12.75
2023-04-10T03:11:59.939Z,12.82
2023-04-10T03:14:28.227Z,14.02
2023-04-10T03:16:56.746Z,12.43
2023-04-10T03:19:26.772Z,13.15
2023-04-10T03:21:55.441Z,13.55
2023-04-10T03:24:25.338Z,12.82
2023-04-10T03:26:53.743Z,13.80
2023-04-10T03:29:22.695Z,11.15
2023-04-10T03:31:51.139Z,11.52
2023-04-10T03:34:19.662Z,13.30
2023-04-10T03:36:48.153Z,12.13
2023-04-10T03:39:16.529Z,13.40
2023-04-10T03:41:46.242Z,15.65
2023-04-10T03:44:14.713Z,13.25
2023-04-10T03:46:43.086Z,13.65
2023-04-10T03:49:11.583Z,11.82
2023-04-10T03:51:39.914Z,13.05
2023-04-10T03:54:08.252Z,14.30
2023-04-10T03:56:36.701Z,13.95
2023-04-10T03:59:06.552Z,11.70
2023-04-10T04:01:34.942Z,14.27
2023-04-10T04:04:03.568Z,14.05
2023-04-10T04:06:32.410Z,14.60
2023-04-10T04:09:00.755Z,12.25
2023-04-10T04:11:29.133Z,13.95
2023-04-10T04:13:57.547Z,12.50
2023-04-10T04:16:27.473Z,14.77
2023-04-10T04:18:55.834Z,12.43
2023-04-10T04:21:24.226Z,13.32
2023-04-10T04:23:52.759Z,12.80
2023-04-10T04:26:21.351Z,12.60
2023-04-10T04:28:49.716Z,15.65
2023-04-10T04:31:18.228Z,13.93
2023-04-10T04:33:48.070Z,13.80
2023-04-10T04:36:17.059Z,14.63
2023-04-10T04:38:45.485Z,13.48
2023-04-10T04:41:13.983Z,14.13
2023-04-10T04:43:42.322Z,11.65
2023-04-10T04:46:10.848Z,11.98
2023-04-10T04:48:39.273Z,13.60
2023-04-10T04:51:09.652Z,14.50
2023-04-10T04:53:38.016Z,12.98
2023-04-10T04:56:07.450Z,14.23
2023-04-10T04:58:35.836Z,14.52
2023-04-10T05:01:04.223Z,14.43
2023-04-10T05:03:33.194Z,16.40
2023-04-10T05:06:01.661Z,14.05
2023-04-10T05:08:31.385Z,14.60
2023-04-10T05:10:59.852Z,11.38
2023-04-10T05:13:28.259Z,13.75
2023-04-10T05:15:56.632Z,13.35
2023-04-10T05:18:25.281Z,14.07
2023-04-10T05:20:53.688Z,12.10
2023-04-10T05:23:22.011Z,12.80
2023-04-10T05:25:52.696Z,13.57
2023-04-10T05:28:21.111Z,16.60
2023-04-10T05:30:49.561Z,11.52
2023-04-10T05:33:18.064Z,13.40
2023-04-10T05:35:47.756Z,12.10
2023-04-10T05:38:16.215Z,14.63
2023-04-10T05:40:46.887Z,15.13
2023-04-10T05:43:16.776Z,14.05
2023-04-10T05:45:45.925Z,14.55
2023-04-10T05:48:14.293Z,13.18
2023-04-10T05:50:42.649Z,12.57
2023-04-10T05:53:14.186Z,16.95
2023-04-10T05:55:42.561Z,15.35
2023-04-10T05:58:10.870Z,15.15
2023-04-10T06:00:40.930Z,10.95
2023-04-10T06:03:09.882Z,12.82
2023-04-10T06:05:38.428Z,13.75
2023-04-10T06:08:07.563Z,15.10
2023-04-10T06:10:38.320Z,12.95
2023-04-10T06:13:08.288Z,17.40
2023-04-10T06:15:38.325Z,15.27
2023-04-10T06:18:08.094Z,16.63
2023-04-10T06:20:36.378Z,16.70
2023-04-10T06:23:04.726Z,14.48
2023-04-10T06:25:33.137Z,12.30
2023-04-10T06:28:01.585Z,13.98
2023-04-10T06:30:30.770Z,18.33
2023-04-10T06:32:59.207Z,13.63
2023-04-10T06:35:29.008Z,12.02
2023-04-10T06:37:57.392Z,14.88
2023-04-10T06:40:25.757Z,15.45
2023-04-10T06:42:54.216Z,16.50
2023-04-10T06:45:22.633Z,15.00
2023-04-10T06:47:51.071Z,15.43
2023-04-10T06:50:19.619Z,16.52
2023-04-10T06:52:49.414Z,14.23
2023-04-10T06:55:18.057Z,17.65
2023-04-10T06:57:46.414Z,15.98
2023-04-10T07:00:16.105Z,14.25
2023-04-10T07:02:44.695Z,13.35
2023-04-10T07:05:13.114Z,15.70
2023-04-10T07:07:41.475Z,15.82
2023-04-10T07:10:13.097Z,11.85
2023-04-10T07:12:41.435Z,17.42
2023-04-10T07:15:12.457Z,13.25
2023-04-10T07:17:41.094Z,14.25
2023-04-10T07:20:11.143Z,15.30
2023-04-10T07:22:39.446Z,12.32
2023-04-10T07:25:10.816Z,12.75
2023-04-10T07:27:39.169Z,13.65
2023-04-10T07:30:10.082Z,14.32
2023-04-10T07:32:40.357Z,13.68
2023-04-10T07:35:10.584Z,14.38
2023-04-10T07:37:39.893Z,18.00
2023-04-10T07:40:11.699Z,12.70
2023-04-10T07:42:40.037Z,14.55
2023-04-10T07:45:10.310Z,13.77
2023-04-10T07:47:38.824Z,16.50
2023-04-10T07:50:09.413Z,17.35
2023-04-10T07:52:37.758Z,14.65
2023-04-10T07:55:07.082Z,14.82
2023-04-10T07:57:37.264Z,16.42
2023-04-10T08:00:07.669Z,13.32
2023-04-10T08:02:36.400Z,14.18
2023-04-10T08:05:05.269Z,14.05
2023-04-10T08:07:33.931Z,15.43
2023-04-10T08:10:02.331Z,13.77
2023-04-10T08:12:32.085Z,14.20
2023-04-10T08:15:01.769Z,14.90
2023-04-10T08:17:30.138Z,14.32
2023-04-10T08:19:58.618Z,13.70
2023-04-10T08:22:27.055Z,16.42
2023-04-10T08:24:55.605Z,19.88
2023-04-10T08:27:23.918Z,14.95
2023-04-10T08:29:52.442Z,11.60
2023-04-10T08:32:22.304Z,17.48
2023-04-10T08:34:51.397Z,12.63
2023-04-10T08:37:20.475Z,14.68
2023-04-10T08:39:48.815Z,15.52
2023-04-10T08:42:17.150Z,16.00
2023-04-10T08:44:46.084Z,17.38
2023-04-10T08:47:15.165Z,14.98
2023-04-10T08:49:49.347Z,15.95
2023-04-10T08:52:21.588Z,16.77
2023-04-10T08:54:52.098Z,15.00
2023-04-10T08:57:20.974Z,15.05
2023-04-10T08:59:49.490Z,15.20
2023-04-10T09:02:18.015Z,13.35
2023-04-10T09:04:52.002Z,15.25
2023-04-10T09:07:20.767Z,13.30
2023-04-10T09:09:49.120Z,15.93
2023-04-10T09:12:17.996Z,15.48
2023-04-10T09:14:46.401Z,14.23
2023-04-10T09:17:19.513Z,14.25
2023-04-10T09:19:50.416Z,19.30
2023-04-10T09:22:18.910Z,16.15
2023-04-10T09:24:48.330Z,16.90
2023-04-10T09:27:30.920Z,17.50
2023-04-10T09:29:59.381Z,14.85
2023-04-10T09:32:39.083Z,17.65
2023-04-10T09:35:10.156Z,13.60
2023-04-10T09:37:38.756Z,15.80
2023-04-10T09:40:09.540Z,16.95
2023-04-10T09:42:38.956Z,14.40
2023-04-10T09:45:08.184Z,15.50
2023-04-10T09:47:36.632Z,21.38
2023-04-10T09:50:05.624Z,14.60
2023-04-10T09:52:36.687Z,16.20
2023-04-10T09:55:07.696Z,15.77
2023-04-10T09:57:36.636Z,12.70
2023-04-10T10:00:07.264Z,15.13
2023-04-10T10:02:40.266Z,16.50
2023-04-10T10:05:10.365Z,15.88
2023-04-10T10:07:40.437Z,14.23
2023-04-10T10:10:10.099Z,15.68
2023-04-10T10:12:44.114Z,16.17
2023-04-10T10:15:16.105Z,14.30
2023-04-10T10:17:49.343Z,14.60
2023-04-10T10:20:18.980Z,14.45
2023-04-10T10:22:48.795Z,12.77
2023-04-10T10:25:17.175Z,15.88
2023-04-10T10:27:45.599Z,15.82
2023-04-10T10:30:28.092Z,17.88
2023-04-10T10:32:57.711Z,14.57
2023-04-10T10:35:29.344Z,17.02
2023-04-10T10:38:00.156Z,14.43
2023-04-10T10:40:31.238Z,16.13
2023-04-10T10:43:06.442Z,22.80
2023-04-10T10:45:37.786Z,15.65
2023-04-10T10:48:06.969Z,12.68
2023-04-10T10:50:57.407Z,14.40
2023-04-10T10:53:40.502Z,17.50
2023-04-10T10:56:37.578Z,13.90
2023-04-10T10:59:05.955Z,14.98
2023-04-10T11:01:34.729Z,16.88
2023-04-10T11:04:03.651Z,12.05
2023-04-10T11:06:53.132Z,15.98
2023-04-10T11:09:51.976Z,15.32
2023-04-10T11:12:23.679Z,15.75
2023-04-10T11:14:59.936Z,15.07
2023-04-10T11:17:54.607Z,15.13
2023-04-10T11:20:27.274Z,18.02
2023-04-10T11:23:12.508Z,14.60
2023-04-10T11:25:52.345Z,14.35
2023-04-10T11:28:37.633Z,13.27
2023-04-10T11:31:19.907Z,12.82
2023-04-10T11:33:49.618Z,16.27
2023-04-10T11:36:18.806Z,13.57
2023-04-10T11:38:57.944Z,22.83
2023-04-10T11:41:32.020Z,18.58
2023-04-10T11:44:00.730Z,13.90
2023-04-10T11:46:29.303Z,11.43
2023-04-10T11:49:01.403Z,13.00
2023-04-10T11:51:31.180Z,14.45
2023-04-10T11:54:07.705Z,13.20
2023-04-10T11:56:37.636Z,14.20
2023-04-10T11:59:07.929Z,14.00
2023-04-10T12:01:36.613Z,13.52
2023-04-10T12:04:05.386Z,13.02
2023-04-10T12:06:33.854Z,16.75
2023-04-10T12:09:02.319Z,13.45
2023-04-10T12:11:30.773Z,13.82
2023-04-10T12:14:00.546Z,15.88
2023-04-10T12:16:28.955Z,11.23
2023-04-10T12:18:57.511Z,11.52
2023-04-10T12:21:26.328Z,13.70
2023-04-10T12:23:54.736Z,14.18
2023-04-10T12:26:23.114Z,13.25
2023-04-10T12:28:53.666Z,11.32
2023-04-10T12:31:30.061Z,14.48
2023-04-10T12:33:58.853Z,13.48
2023-04-10T12:36:29.460Z,12.63
2023-04-10T12:38:58.246Z,12.13
2023-04-10T12:41:27.693Z,13.02
2023-04-10T12:44:07.888Z,12.93
2023-04-10T12:46:37.964Z,12.45
2023-04-10T12:49:13.758Z,16.65
2023-04-10T12:51:46.944Z,15.05
2023-04-10T12:54:29.760Z,11.43
2023-04-10T12:56:58.295Z,11.48
2023-04-10T12:59:26.833Z,10.90
2023-04-10T13:01:56.773Z,13.45
2023-04-10T13:04:25.487Z,12.48
2023-04-10T13:06:54.130Z,11.20
2023-04-10T13:09:22.573Z,13.13
2023-04-10T13:11:51.950Z,13.52
2023-04-10T13:14:20.614Z,12.05
2023-04-10T13:16:49.184Z,10.40
2023-04-10T13:19:19.100Z,13.20
2023-04-10T13:21:47.579Z,12.18
2023-04-10T13:24:16.941Z,10.95
2023-04-10T13:26:45.666Z,12.40
2023-04-10T13:29:14.035Z,12.13
2023-04-10T13:31:42.451Z,11.27
2023-04-10T13:34:10.999Z,12.18
2023-04-10T13:36:40.843Z,11.02
2023-04-10T13:39:09.297Z,11.65
2023-04-10T13:41:37.627Z,11.68
2023-04-10T13:44:06.048Z,9.25
2023-04-10T13:46:34.545Z,11.98
2023-04-10T13:49:02.949Z,13.68
2023-04-10T13:51:31.707Z,11.95
2023-04-10T13:54:03.043Z,11.82
2023-04-10T13:56:31.559Z,13.63
2023-04-10T13:58:59.975Z,11.35
2023-04-10T14:01:28.430Z,9.80
2023-04-10T14:03:57.077Z,12.70
2023-04-10T14:06:26.682Z,10.73
2023-04-10T14:08:55.169Z,10.80
2023-04-10T14:11:25.191Z,10.40
2023-04-10T14:13:53.581Z,13.95
2023-04-10T14:16:22.064Z,9.05
2023-04-10T14:18:50.527Z,11.90
2023-04-10T14:21:20.681Z,10.68
2023-04-10T14:23:49.309Z,10.63
2023-04-10T14:26:17.819Z,10.35
2023-04-10T14:28:47.574Z,11.63
2023-04-10T14:31:15.988Z,11.35
2023-04-10T14:33:44.396Z,12.38
2023-04-10T14:36:12.944Z,11.13
2023-04-10T14:38:41.448Z,10.50
2023-04-10T14:41:09.801Z,12.00
2023-04-10T14:43:38.813Z,10.55
2023-04-10T14:46:09.038Z,11.15
2023-04-10T14:48:37.491Z,9.10
2023-04-10T14:51:12.707Z,9.55
2023-04-10T14:53:41.046Z,9.70
2023-04-10T14:56:13.199Z,11.15
2023-04-10T14:58:41.564Z,10.45
2023-04-10T15:01:13.552Z,11.90
2023-04-10T15:03:42.085Z,13.80
2023-04-10T15:06:10.730Z,11.98
2023-04-10T15:08:39.103Z,10.63
2023-04-10T15:11:08.003Z,12.55
2023-04-10T15:13:37.723Z,9.48
2023-04-10T15:16:08.206Z,12.25
2023-04-10T15:18:38.180Z,10.38
2023-04-10T15:21:07.453Z,15.45
2023-04-10T15:23:35.984Z,10.40
2023-04-10T15:26:04.858Z,11.48
2023-04-10T15:28:48.549Z,10.68
2023-04-10T15:31:58.715Z,11.00
2023-04-10T15:35:13.766Z,9.23
2023-04-10T15:40:53.146Z,14.80
2023-04-10T15:43:22.848Z,7.88
2023-04-10T15:45:53.695Z,10.27
2023-04-10T15:48:27.797Z,13.43
2023-04-10T15:51:00.481Z,12.82
2023-04-10T15:53:53.492Z,12.55
2023-04-10T15:56:22.388Z,11.38
2023-04-10T15:58:54.744Z,12.52
2023-04-10T16:01:30.772Z,11.60
2023-04-10T16:04:01.150Z,11.00
2023-04-10T16:06:32.030Z,11.63
2023-04-10T16:09:01.091Z,13.45
2023-04-10T16:11:30.533Z,13.00
2023-04-10T16:14:00.474Z,11.90
2023-04-10T16:16:30.942Z,10.50
2023-04-10T16:19:02.078Z,11.18
2023-04-10T16:21:33.807Z,13.88
2023-04-10T16:24:12.352Z,13.32
2023-04-10T16:26:45.233Z,13.00
2023-04-10T16:29:18.660Z,9.95
2023-04-10T16:31:47.630Z,9.23
2023-04-10T16:34:16.408Z,8.93
2023-04-10T16:36:47.039Z,10.43
2023-04-10T16:39:17.036Z,10.25
2023-04-10T16:41:48.502Z,11.55
2023-04-10T16:44:24.136Z,9.80
2023-04-10T16:46:53.406Z,8.32
2023-04-10T16:49:25.351Z,10.48
2023-04-10T16:51:55.917Z,8.63
2023-04-10T16:54:29.026Z,12.75
2023-04-10T16:57:17.931Z,10.57
2023-04-10T16:59:49.354Z,8.70
2023-04-10T17:02:33.232Z,8.05
2023-04-10T17:05:14.591Z,9.55
2023-04-10T17:12:01.931Z,8.63
2023-04-10T17:19:03.409Z,9.90
2023-04-10T17:21:48.140Z,9.32
2023-04-10T17:24:59.471Z,8.77
2023-04-10T17:31:56.662Z,9.98
2023-04-10T17:34:31.074Z,9.45
2023-04-10T17:37:50.343Z,7.80
2023-04-10T17:40:23.608Z,8.95
2023-04-10T17:43:02.686Z,8.05
2023-04-10T17:54:35.487Z,11.20
2023-04-10T18:01:01.014Z,9.68
2023-04-10T18:07:42.307Z,6.60
2023-04-10T18:17:58.466Z,7.88
2023-04-10T18:20:34.783Z,8.70
2023-04-10T18:23:11.383Z,6.47
2023-04-10T18:26:05.154Z,9.65
2023-04-10T18:49:27.896Z,9.55
2023-04-10T19:13:32.314Z,6.57
2023-04-10T19:29:10.567Z,8.07
2023-04-10T19:31:54.238Z,8.20
2023-04-10T19:35:12.039Z,7.72
2023-04-10T19:37:44.897Z,9.32
2023-04-10T19:40:35.140Z,10.00
2023-04-10T19:43:36.640Z,7.93
2023-04-10T19:46:27.990Z,8.85
2023-04-10T19:49:06.994Z,7.38
2023-04-10T19:55:20.680Z,7.32
2023-04-10T19:58:48.791Z,8.15
2023-04-10T20:03:04.850Z,8.77
2023-04-10T20:08:24.796Z,7.90
2023-04-10T20:11:10.494Z,7.78
2023-04-10T20:14:28.477Z,9.10
2023-04-10T20:17:40.797Z,8.23
2023-04-10T20:20:58.047Z,10.50
2023-04-10T20:23:34.316Z,9.57
2023-04-10T20:26:22.454Z,7.82
2023-04-10T20:29:05.740Z,6.88
2023-04-10T20:31:45.144Z,7.88
2023-04-10T20:34:28.654Z,7.22
2023-04-10T20:37:39.539Z,6.32
2023-04-10T20:47:04.374Z,9.27
2023-04-10T20:49:44.029Z,8.68
2023-04-10T20:52:22.675Z,9.43
2023-04-10T21:05:54.190Z,9.75
2023-04-10T21:08:39.683Z,8.50
2023-04-10T21:11:08.602Z,8.13
2023-04-10T21:13:38.502Z,6.45
2023-04-10T21:16:08.288Z,6.97
2023-04-10T21:18:36.723Z,7.68
2023-04-10T21:21:07.375Z,8.27
2023-04-10T21:23:35.741Z,6.68
2023-04-10T21:26:04.135Z,9.82
2023-04-10T21:28:32.525Z,8.13
2023-04-10T21:31:00.928Z,8.68
2023-04-10T21:33:29.342Z,9.20
2023-04-10T21:35:57.784Z,7.22
2023-04-10T21:38:28.149Z,9.23
2023-04-10T21:40:56.521Z,8.85
2023-04-10T21:43:24.998Z,10.65
2023-04-10T21:45:53.472Z,7.13
2023-04-10T21:48:21.956Z,11.57
2023-04-10T21:50:51.437Z,9.48
2023-04-10T21:53:19.799Z,10.23
2023-04-10T21:55:50.229Z,8.95
2023-04-10T21:58:18.614Z,9.93
2023-04-10T22:00:47.501Z,8.00
2023-04-10T22:03:16.786Z,11.05
2023-04-10T22:05:46.001Z,13.07
2023-04-10T22:08:15.068Z,8.65
2023-04-10T22:10:45.472Z,10.05
2023-04-10T22:13:27.334Z,9.55
2023-04-10T22:15:58.459Z,9.02
2023-04-10T22:18:26.881Z,9.68
2023-04-10T22:20:55.322Z,11.32
2023-04-10T22:23:24.037Z,7.65
2023-04-10T22:25:52.407Z,8.02
2023-04-10T22:28:22.118Z,8.65
2023-04-10T22:30:50.865Z,10.98
2023-04-10T22:33:19.393Z,8.45
2023-04-10T22:35:47.796Z,12.23
2023-04-10T22:38:16.235Z,8.43
2023-04-10T22:40:44.651Z,9.10
2023-04-10T22:43:13.216Z,9.48
2023-04-10T22:45:43.284Z,9.13
2023-04-10T22:48:11.692Z,8.52
2023-04-10T22:50:40.157Z,11.55
2023-04-10T22:53:08.564Z,8.25
2023-04-10T22:55:38.861Z,9.23
2023-04-10T22:58:07.243Z,8.60
2023-04-10T23:00:35.656Z,9.85
2023-04-10T23:03:05.843Z,9.77
2023-04-10T23:05:34.209Z,9.77
2023-04-10T23:08:02.592Z,9.90
2023-04-10T23:10:31.019Z,8.68
2023-04-10T23:12:59.351Z,9.07
2023-04-10T23:15:27.704Z,9.25
2023-04-10T23:17:56.947Z,9.05
2023-04-10T23:20:26.730Z,8.23
2023-04-10T23:22:56.955Z,11.75
2023-04-10T23:25:25.673Z,9.35
2023-04-10T23:27:53.993Z,11.77
2023-04-10T23:30:22.388Z,8.45
2023-04-10T23:32:50.815Z,10.85
2023-04-10T23:35:19.264Z,10.82
2023-04-10T23:37:50.513Z,11.15
2023-04-10T23:40:19.283Z,9.65
2023-04-10T23:42:47.621Z,8.10
2023-04-10T23:45:15.939Z,10.40
2023-04-10T23:47:44.372Z,12.02
2023-04-10T23:50:12.856Z,9.15
2023-04-10T23:52:41.233Z,10.82
2023-04-10T23:55:11.310Z,11.18
2023-04-10T23:57:39.688Z,12.23
